SIA217 WSSS-YMML
Flight info
| Callsign | SIA217 |
|---|---|
| Flight time | N/A |
| Altitude | 37000 |
| Route | IDBUD T24 SURGA M635 BLI/N0488F390 M635 ATMAP A576 CIN DCT GOMAP DCT AGAGO A461 LEC H119 ARBEY |
| Aircraft | A359/H-SDE2E3GHIJ3J4J5LM1ORWXY/LB1D1 |
Departure
| Time | 2026-05-07 06:48 |
|---|---|
| Airport | Singapore Changi Airport (WSSS) |
Arrival
| Time | N/A |
|---|---|
| Airport | Melbourne Airport (YMML) |
| Time | Latitude | Longitude | Altitude | Speed | Heading |
|---|---|---|---|---|---|
| 2026-05-07 06:00 | 1.35155 | 103.98348 | 31 ft | 0 kts | 112° |
| 2026-05-07 06:31 | 1.35162 | 103.98332 | 30 ft | 4 kts | 112° |
| 2026-05-07 06:31 | 1.35172 | 103.98308 | 31 ft | 3 kts | 112° |
| 2026-05-07 06:31 | 1.35182 | 103.98288 | 31 ft | 4 kts | 132° |
| 2026-05-07 06:31 | 1.35203 | 103.98275 | 31 ft | 4 kts | 178° |
| 2026-05-07 06:32 | 1.35227 | 103.98279 | 31 ft | 2 kts | 202° |
| 2026-05-07 06:32 | 1.35228 | 103.98280 | 31 ft | 0 kts | 202° |
| 2026-05-07 06:36 | 1.35224 | 103.98278 | 31 ft | 3 kts | 202° |
| 2026-05-07 06:37 | 1.35184 | 103.98264 | 31 ft | 10 kts | 197° |
| 2026-05-07 06:37 | 1.35135 | 103.98226 | 31 ft | 9 kts | 237° |
| 2026-05-07 06:37 | 1.35104 | 103.98169 | 31 ft | 10 kts | 243° |
| 2026-05-07 06:37 | 1.35064 | 103.98115 | 32 ft | 10 kts | 216° |
| 2026-05-07 06:38 | 1.35000 | 103.98086 | 31 ft | 11 kts | 202° |
| 2026-05-07 06:38 | 1.34928 | 103.98057 | 31 ft | 12 kts | 202° |
| 2026-05-07 06:38 | 1.34848 | 103.98024 | 31 ft | 13 kts | 202° |
| 2026-05-07 06:38 | 1.34765 | 103.97987 | 31 ft | 10 kts | 204° |
| 2026-05-07 06:39 | 1.34706 | 103.97988 | 31 ft | 8 kts | 137° |
| 2026-05-07 06:39 | 1.34681 | 103.98041 | 31 ft | 10 kts | 113° |
| 2026-05-07 06:39 | 1.34646 | 103.98126 | 31 ft | 17 kts | 112° |
| 2026-05-07 06:39 | 1.34604 | 103.98226 | 40 ft | 12 kts | 113° |
| 2026-05-07 06:40 | 1.34583 | 103.98275 | 44 ft | 5 kts | 112° |
| 2026-05-07 06:40 | 1.34563 | 103.98325 | 48 ft | 10 kts | 112° |
| 2026-05-07 06:40 | 1.34535 | 103.98391 | 47 ft | 11 kts | 113° |
| 2026-05-07 06:40 | 1.34498 | 103.98477 | 41 ft | 18 kts | 113° |
| 2026-05-07 06:41 | 1.34448 | 103.98596 | 31 ft | 17 kts | 115° |
| 2026-05-07 06:41 | 1.34399 | 103.98705 | 31 ft | 17 kts | 112° |
| 2026-05-07 06:41 | 1.34352 | 103.98818 | 32 ft | 18 kts | 112° |
| 2026-05-07 06:41 | 1.34330 | 103.98900 | 33 ft | 8 kts | 73° |
| 2026-05-07 06:42 | 1.34377 | 103.98935 | 33 ft | 11 kts | 23° |
| 2026-05-07 06:42 | 1.34471 | 103.98975 | 33 ft | 18 kts | 22° |
| 2026-05-07 06:42 | 1.34604 | 103.99029 | 33 ft | 21 kts | 22° |
| 2026-05-07 06:42 | 1.34746 | 103.99087 | 32 ft | 22 kts | 22° |
| 2026-05-07 06:43 | 1.34893 | 103.99146 | 32 ft | 23 kts | 22° |
| 2026-05-07 06:43 | 1.35040 | 103.99212 | 32 ft | 23 kts | 23° |
| 2026-05-07 06:43 | 1.35191 | 103.99276 | 32 ft | 23 kts | 22° |
| 2026-05-07 06:43 | 1.35342 | 103.99338 | 32 ft | 24 kts | 22° |
| 2026-05-07 06:44 | 1.35493 | 103.99402 | 32 ft | 24 kts | 23° |
| 2026-05-07 06:44 | 1.35649 | 103.99467 | 32 ft | 24 kts | 23° |
| 2026-05-07 06:44 | 1.35809 | 103.99534 | 32 ft | 25 kts | 22° |
| 2026-05-07 06:44 | 1.35972 | 103.99602 | 31 ft | 26 kts | 22° |
| 2026-05-07 06:45 | 1.36130 | 103.99669 | 31 ft | 17 kts | 22° |
| 2026-05-07 06:45 | 1.36205 | 103.99700 | 31 ft | 10 kts | 22° |
| 2026-05-07 06:45 | 1.36251 | 103.99727 | 31 ft | 2 kts | 70° |
| 2026-05-07 06:45 | 1.36246 | 103.99742 | 31 ft | 3 kts | 109° |
| 2026-05-07 06:46 | 1.36232 | 103.99777 | 32 ft | 8 kts | 112° |
| 2026-05-07 06:46 | 1.36207 | 103.99833 | 31 ft | 9 kts | 114° |
| 2026-05-07 06:46 | 1.36165 | 103.99873 | 32 ft | 8 kts | 169° |
| 2026-05-07 06:46 | 1.36110 | 103.99862 | 32 ft | 10 kts | 203° |
| 2026-05-07 06:47 | 1.35916 | 103.99780 | 34 ft | 60 kts | 202° |
| 2026-05-07 06:47 | 1.35342 | 103.99538 | 36 ft | 117 kts | 204° |
| 2026-05-07 06:47 | 1.34452 | 103.99161 | 38 ft | 163 kts | 204° |
| 2026-05-07 06:47 | 1.33384 | 103.98686 | 545 ft | 166 kts | 201° |
| 2026-05-07 06:48 | 1.32315 | 103.98234 | 1114 ft | 169 kts | 202° |
| 2026-05-07 06:48 | 1.31164 | 103.97757 | 1414 ft | 189 kts | 202° |
| 2026-05-07 06:48 | 1.29874 | 103.97220 | 1610 ft | 213 kts | 202° |
| 2026-05-07 06:48 | 1.28449 | 103.96617 | 1899 ft | 229 kts | 202° |
| 2026-05-07 06:49 | 1.26949 | 103.95985 | 2418 ft | 237 kts | 202° |
| 2026-05-07 06:49 | 1.25402 | 103.95344 | 3032 ft | 242 kts | 202° |
| 2026-05-07 06:49 | 1.23823 | 103.94713 | 3609 ft | 249 kts | 200° |
| 2026-05-07 06:49 | 1.22084 | 103.94538 | 4053 ft | 258 kts | 169° |
| 2026-05-07 06:50 | 1.20328 | 103.95012 | 4500 ft | 268 kts | 164° |
| 2026-05-07 06:50 | 1.18518 | 103.95500 | 4979 ft | 275 kts | 166° |
| 2026-05-07 06:50 | 1.16661 | 103.95957 | 5667 ft | 275 kts | 166° |
| 2026-05-07 06:50 | 1.14794 | 103.96412 | 6298 ft | 277 kts | 166° |
| 2026-05-07 06:51 | 1.12912 | 103.96873 | 6880 ft | 279 kts | 166° |
| 2026-05-07 06:51 | 1.11040 | 103.97425 | 7482 ft | 282 kts | 156° |
| 2026-05-07 06:51 | 1.09380 | 103.98446 | 8173 ft | 280 kts | 142° |
| 2026-05-07 06:51 | 1.07824 | 103.99637 | 8829 ft | 283 kts | 141° |
| 2026-05-07 06:52 | 1.06264 | 104.00855 | 9460 ft | 286 kts | 141° |
| 2026-05-07 06:52 | 1.04686 | 104.02084 | 10069 ft | 289 kts | 141° |
| 2026-05-07 06:52 | 1.03166 | 104.03415 | 10414 ft | 302 kts | 131° |
| 2026-05-07 06:52 | 1.02037 | 104.05264 | 10676 ft | 316 kts | 114° |
| 2026-05-07 06:53 | 1.01165 | 104.07302 | 10935 ft | 330 kts | 112° |
| 2026-05-07 06:53 | 1.00271 | 104.09469 | 11188 ft | 344 kts | 112° |
| 2026-05-07 06:53 | 0.99336 | 104.11716 | 11435 ft | 356 kts | 112° |
| 2026-05-07 06:53 | 0.98372 | 104.14024 | 11755 ft | 364 kts | 112° |
| 2026-05-07 06:54 | 0.97390 | 104.16378 | 12172 ft | 369 kts | 112° |
| 2026-05-07 06:54 | 0.96391 | 104.18753 | 12616 ft | 373 kts | 112° |
| 2026-05-07 06:54 | 0.95376 | 104.21156 | 13076 ft | 376 kts | 112° |
| 2026-05-07 06:54 | 0.94202 | 104.23499 | 13513 ft | 380 kts | 120° |
| 2026-05-07 06:55 | 0.92820 | 104.25767 | 13914 ft | 383 kts | 121° |
| 2026-05-07 06:55 | 0.91402 | 104.28030 | 14340 ft | 385 kts | 121° |
| 2026-05-07 06:55 | 0.89975 | 104.30307 | 14751 ft | 388 kts | 121° |
| 2026-05-07 06:55 | 0.88559 | 104.32573 | 15165 ft | 390 kts | 121° |
| 2026-05-07 06:56 | 0.87124 | 104.34874 | 15560 ft | 392 kts | 121° |
| 2026-05-07 06:56 | 0.85676 | 104.37196 | 15958 ft | 394 kts | 121° |
| 2026-05-07 06:56 | 0.84222 | 104.39531 | 16336 ft | 397 kts | 121° |